sensor_id;sensor_type;location;lat;lon;timestamp;P1;durP1;ratioP1;P2;durP2;ratioP2
16416;SDS011;8317;52.186;5.688;2023-01-04T00:02:03;5.10;;;2.60;;
16416;SDS011;8317;52.186;5.688;2023-01-04T00:04:31;11.77;;;3.22;;
16416;SDS011;8317;52.186;5.688;2023-01-04T00:06:58;10.70;;;3.13;;
16416;SDS011;8317;52.186;5.688;2023-01-04T00:09:25;6.32;;;3.00;;
16416;SDS011;8317;52.186;5.688;2023-01-04T00:11:52;6.60;;;2.65;;
16416;SDS011;8317;52.186;5.688;2023-01-04T00:14:18;12.43;;;3.22;;
16416;SDS011;8317;52.186;5.688;2023-01-04T00:16:45;6.93;;;3.22;;
16416;SDS011;8317;52.186;5.688;2023-01-04T00:19:12;6.15;;;2.65;;
16416;SDS011;8317;52.186;5.688;2023-01-04T00:21:40;7.18;;;3.08;;
16416;SDS011;8317;52.186;5.688;2023-01-04T00:24:08;7.30;;;2.97;;
16416;SDS011;8317;52.186;5.688;2023-01-04T00:26:35;5.68;;;3.10;;
16416;SDS011;8317;52.186;5.688;2023-01-04T00:29:02;7.70;;;3.22;;
16416;SDS011;8317;52.186;5.688;2023-01-04T00:31:31;8.30;;;3.63;;
16416;SDS011;8317;52.186;5.688;2023-01-04T00:33:59;11.25;;;3.92;;
16416;SDS011;8317;52.186;5.688;2023-01-04T00:36:27;8.30;;;3.55;;
16416;SDS011;8317;52.186;5.688;2023-01-04T00:38:56;10.00;;;3.63;;
16416;SDS011;8317;52.186;5.688;2023-01-04T00:41:32;6.55;;;3.65;;
16416;SDS011;8317;52.186;5.688;2023-01-04T00:44:01;7.57;;;3.60;;
16416;SDS011;8317;52.186;5.688;2023-01-04T00:46:28;8.55;;;4.47;;
16416;SDS011;8317;52.186;5.688;2023-01-04T00:48:56;5.50;;;3.35;;
16416;SDS011;8317;52.186;5.688;2023-01-04T00:51:23;7.97;;;3.72;;
16416;SDS011;8317;52.186;5.688;2023-01-04T00:53:50;4.68;;;2.70;;
16416;SDS011;8317;52.186;5.688;2023-01-04T00:56:18;7.00;;;3.22;;
16416;SDS011;8317;52.186;5.688;2023-01-04T00:58:45;5.93;;;3.38;;
16416;SDS011;8317;52.186;5.688;2023-01-04T01:01:12;9.60;;;3.80;;
16416;SDS011;8317;52.186;5.688;2023-01-04T01:03:39;9.85;;;3.75;;
16416;SDS011;8317;52.186;5.688;2023-01-04T01:06:07;8.88;;;3.42;;
16416;SDS011;8317;52.186;5.688;2023-01-04T01:08:34;6.43;;;3.40;;
16416;SDS011;8317;52.186;5.688;2023-01-04T01:11:02;5.78;;;2.72;;
16416;SDS011;8317;52.186;5.688;2023-01-04T01:13:32;5.90;;;3.33;;
16416;SDS011;8317;52.186;5.688;2023-01-04T01:16:02;6.13;;;3.03;;
16416;SDS011;8317;52.186;5.688;2023-01-04T01:18:31;6.10;;;3.53;;
16416;SDS011;8317;52.186;5.688;2023-01-04T01:20:58;5.57;;;2.50;;
16416;SDS011;8317;52.186;5.688;2023-01-04T01:23:25;6.30;;;3.50;;
16416;SDS011;8317;52.186;5.688;2023-01-04T01:25:52;12.45;;;4.93;;
16416;SDS011;8317;52.186;5.688;2023-01-04T01:28:19;4.20;;;3.25;;
16416;SDS011;8317;52.186;5.688;2023-01-04T01:30:47;5.45;;;3.00;;
16416;SDS011;8317;52.186;5.688;2023-01-04T01:33:14;5.22;;;2.70;;
16416;SDS011;8317;52.186;5.688;2023-01-04T01:35:41;7.65;;;3.50;;
16416;SDS011;8317;52.186;5.688;2023-01-04T01:38:08;3.17;;;2.88;;
16416;SDS011;8317;52.186;5.688;2023-01-04T01:40:39;5.38;;;3.10;;
16416;SDS011;8317;52.186;5.688;2023-01-04T01:43:10;5.65;;;3.22;;
16416;SDS011;8317;52.186;5.688;2023-01-04T01:45:42;7.40;;;3.10;;
16416;SDS011;8317;52.186;5.688;2023-01-04T01:48:12;5.20;;;3.20;;
16416;SDS011;8317;52.186;5.688;2023-01-04T01:50:43;5.13;;;3.33;;
16416;SDS011;8317;52.186;5.688;2023-01-04T01:53:15;3.63;;;3.33;;
16416;SDS011;8317;52.186;5.688;2023-01-04T01:55:43;5.35;;;3.25;;
16416;SDS011;8317;52.186;5.688;2023-01-04T01:58:11;8.63;;;3.33;;
16416;SDS011;8317;52.186;5.688;2023-01-04T02:00:42;4.80;;;2.97;;
16416;SDS011;8317;52.186;5.688;2023-01-04T02:03:12;5.50;;;3.60;;
16416;SDS011;8317;52.186;5.688;2023-01-04T02:05:41;3.92;;;3.20;;
16416;SDS011;8317;52.186;5.688;2023-01-04T02:08:10;5.00;;;3.50;;
16416;SDS011;8317;52.186;5.688;2023-01-04T02:10:39;8.38;;;3.78;;
16416;SDS011;8317;52.186;5.688;2023-01-04T02:13:07;4.30;;;3.88;;
16416;SDS011;8317;52.186;5.688;2023-01-04T02:15:40;4.70;;;2.95;;
16416;SDS011;8317;52.186;5.688;2023-01-04T02:18:21;6.28;;;4.00;;
16416;SDS011;8317;52.186;5.688;2023-01-04T02:20:53;5.90;;;3.55;;
16416;SDS011;8317;52.186;5.688;2023-01-04T02:23:41;6.82;;;4.43;;
16416;SDS011;8317;52.186;5.688;2023-01-04T02:32:44;6.63;;;3.33;;
16416;SDS011;8317;52.186;5.688;2023-01-04T02:35:20;3.92;;;3.53;;
16416;SDS011;8317;52.186;5.688;2023-01-04T02:37:56;5.13;;;3.65;;
16416;SDS011;8317;52.186;5.688;2023-01-04T02:40:31;5.88;;;3.03;;
16416;SDS011;8317;52.186;5.688;2023-01-04T02:43:08;6.00;;;4.32;;
16416;SDS011;8317;52.186;5.688;2023-01-04T02:46:03;4.07;;;3.60;;
16416;SDS011;8317;52.186;5.688;2023-01-04T02:48:35;5.35;;;4.25;;
16416;SDS011;8317;52.186;5.688;2023-01-04T02:51:24;6.80;;;4.57;;
16416;SDS011;8317;52.186;5.688;2023-01-04T02:53:54;5.28;;;4.78;;
16416;SDS011;8317;52.186;5.688;2023-01-04T02:56:24;4.28;;;3.58;;
16416;SDS011;8317;52.186;5.688;2023-01-04T02:59:10;6.45;;;4.90;;
16416;SDS011;8317;52.186;5.688;2023-01-04T03:01:50;11.15;;;5.25;;
16416;SDS011;8317;52.186;5.688;2023-01-04T03:04:51;6.53;;;5.13;;
16416;SDS011;8317;52.186;5.688;2023-01-04T03:07:44;8.60;;;6.07;;
16416;SDS011;8317;52.186;5.688;2023-01-04T03:10:18;6.32;;;5.35;;
16416;SDS011;8317;52.186;5.688;2023-01-04T03:12:51;7.13;;;6.43;;
16416;SDS011;8317;52.186;5.688;2023-01-04T03:15:22;7.78;;;6.97;;
16416;SDS011;8317;52.186;5.688;2023-01-04T03:17:53;6.18;;;5.68;;
16416;SDS011;8317;52.186;5.688;2023-01-04T03:20:24;7.65;;;6.95;;
16416;SDS011;8317;52.186;5.688;2023-01-04T03:22:54;7.50;;;6.38;;
16416;SDS011;8317;52.186;5.688;2023-01-04T03:25:43;7.15;;;6.47;;
16416;SDS011;8317;52.186;5.688;2023-01-04T03:28:34;8.02;;;7.07;;
16416;SDS011;8317;52.186;5.688;2023-01-04T03:31:21;8.07;;;7.10;;
16416;SDS011;8317;52.186;5.688;2023-01-04T03:34:09;9.63;;;7.13;;
16416;SDS011;8317;52.186;5.688;2023-01-04T03:36:57;7.40;;;6.70;;
16416;SDS011;8317;52.186;5.688;2023-01-04T03:39:40;10.20;;;7.07;;
16416;SDS011;8317;52.186;5.688;2023-01-04T03:42:35;9.32;;;7.40;;
16416;SDS011;8317;52.186;5.688;2023-01-04T03:45:26;7.93;;;6.65;;
16416;SDS011;8317;52.186;5.688;2023-01-04T03:48:15;7.53;;;6.82;;
16416;SDS011;8317;52.186;5.688;2023-01-04T03:51:03;8.00;;;6.95;;
16416;SDS011;8317;52.186;5.688;2023-01-04T03:53:37;7.93;;;7.13;;
16416;SDS011;8317;52.186;5.688;2023-01-04T03:56:07;8.90;;;6.97;;
16416;SDS011;8317;52.186;5.688;2023-01-04T03:58:35;7.63;;;6.93;;
16416;SDS011;8317;52.186;5.688;2023-01-04T04:01:03;9.18;;;7.70;;
16416;SDS011;8317;52.186;5.688;2023-01-04T04:03:31;10.13;;;7.95;;
16416;SDS011;8317;52.186;5.688;2023-01-04T04:06:15;9.65;;;7.25;;
16416;SDS011;8317;52.186;5.688;2023-01-04T04:09:01;10.23;;;8.18;;
16416;SDS011;8317;52.186;5.688;2023-01-04T04:11:29;10.70;;;9.45;;
16416;SDS011;8317;52.186;5.688;2023-01-04T04:13:56;14.43;;;9.82;;
16416;SDS011;8317;52.186;5.688;2023-01-04T04:16:24;9.23;;;8.32;;
16416;SDS011;8317;52.186;5.688;2023-01-04T04:18:52;10.27;;;9.27;;
16416;SDS011;8317;52.186;5.688;2023-01-04T04:21:19;7.95;;;7.15;;
16416;SDS011;8317;52.186;5.688;2023-01-04T04:23:45;11.07;;;9.85;;
16416;SDS011;8317;52.186;5.688;2023-01-04T04:26:14;10.10;;;9.10;;
16416;SDS011;8317;52.186;5.688;2023-01-04T04:28:42;12.23;;;9.40;;
16416;SDS011;8317;52.186;5.688;2023-01-04T04:31:09;9.30;;;8.40;;
16416;SDS011;8317;52.186;5.688;2023-01-04T04:33:36;10.35;;;8.68;;
16416;SDS011;8317;52.186;5.688;2023-01-04T04:36:03;9.40;;;8.40;;
16416;SDS011;8317;52.186;5.688;2023-01-04T04:38:31;9.55;;;8.60;;
16416;SDS011;8317;52.186;5.688;2023-01-04T04:40:58;10.85;;;9.23;;
16416;SDS011;8317;52.186;5.688;2023-01-04T04:43:43;9.82;;;8.82;;
16416;SDS011;8317;52.186;5.688;2023-01-04T04:46:10;9.32;;;8.48;;
16416;SDS011;8317;52.186;5.688;2023-01-04T04:48:38;10.43;;;9.18;;
16416;SDS011;8317;52.186;5.688;2023-01-04T04:51:05;8.93;;;8.02;;
16416;SDS011;8317;52.186;5.688;2023-01-04T04:53:32;10.55;;;8.95;;
16416;SDS011;8317;52.186;5.688;2023-01-04T04:55:58;11.48;;;8.50;;
16416;SDS011;8317;52.186;5.688;2023-01-04T04:58:25;9.70;;;8.70;;
16416;SDS011;8317;52.186;5.688;2023-01-04T05:00:54;9.77;;;7.93;;
16416;SDS011;8317;52.186;5.688;2023-01-04T05:03:20;8.85;;;7.95;;
16416;SDS011;8317;52.186;5.688;2023-01-04T05:05:47;9.02;;;8.23;;
16416;SDS011;8317;52.186;5.688;2023-01-04T05:08:14;11.98;;;9.18;;
16416;SDS011;8317;52.186;5.688;2023-01-04T05:10:41;10.05;;;8.20;;
16416;SDS011;8317;52.186;5.688;2023-01-04T05:13:08;10.00;;;8.65;;
16416;SDS011;8317;52.186;5.688;2023-01-04T05:15:37;10.45;;;8.95;;
16416;SDS011;8317;52.186;5.688;2023-01-04T05:18:08;12.13;;;9.43;;
16416;SDS011;8317;52.186;5.688;2023-01-04T05:20:36;9.82;;;8.82;;
16416;SDS011;8317;52.186;5.688;2023-01-04T05:23:03;9.57;;;8.57;;
16416;SDS011;8317;52.186;5.688;2023-01-04T05:25:31;10.15;;;9.10;;
16416;SDS011;8317;52.186;5.688;2023-01-04T05:27:58;10.15;;;8.93;;
16416;SDS011;8317;52.186;5.688;2023-01-04T05:30:25;10.05;;;9.05;;
16416;SDS011;8317;52.186;5.688;2023-01-04T05:33:11;9.27;;;8.38;;
16416;SDS011;8317;52.186;5.688;2023-01-04T05:35:38;10.75;;;9.65;;
16416;SDS011;8317;52.186;5.688;2023-01-04T05:38:05;11.15;;;9.93;;
16416;SDS011;8317;52.186;5.688;2023-01-04T05:40:32;13.05;;;9.27;;
16416;SDS011;8317;52.186;5.688;2023-01-04T05:42:59;10.85;;;9.73;;
16416;SDS011;8317;52.186;5.688;2023-01-04T05:45:26;11.25;;;9.52;;
16416;SDS011;8317;52.186;5.688;2023-01-04T05:47:53;12.98;;;10.60;;
16416;SDS011;8317;52.186;5.688;2023-01-04T05:50:22;10.98;;;9.57;;
16416;SDS011;8317;52.186;5.688;2023-01-04T05:52:49;11.13;;;10.00;;
16416;SDS011;8317;52.186;5.688;2023-01-04T05:55:17;11.57;;;10.18;;
16416;SDS011;8317;52.186;5.688;2023-01-04T05:57:44;11.48;;;10.15;;
16416;SDS011;8317;52.186;5.688;2023-01-04T06:00:11;9.85;;;8.50;;
16416;SDS011;8317;52.186;5.688;2023-01-04T06:02:39;11.68;;;10.40;;
16416;SDS011;8317;52.186;5.688;2023-01-04T06:05:07;15.98;;;11.25;;
16416;SDS011;8317;52.186;5.688;2023-01-04T06:07:36;11.32;;;9.98;;
16416;SDS011;8317;52.186;5.688;2023-01-04T06:10:03;13.55;;;9.38;;
16416;SDS011;8317;52.186;5.688;2023-01-04T06:12:31;11.15;;;9.63;;
16416;SDS011;8317;52.186;5.688;2023-01-04T06:14:58;11.85;;;10.38;;
16416;SDS011;8317;52.186;5.688;2023-01-04T06:17:25;12.35;;;10.90;;
16416;SDS011;8317;52.186;5.688;2023-01-04T06:19:52;14.00;;;10.77;;
16416;SDS011;8317;52.186;5.688;2023-01-04T06:22:19;12.40;;;9.68;;
16416;SDS011;8317;52.186;5.688;2023-01-04T06:24:47;11.23;;;8.02;;
16416;SDS011;8317;52.186;5.688;2023-01-04T06:27:14;10.52;;;9.13;;
16416;SDS011;8317;52.186;5.688;2023-01-04T06:29:41;11.77;;;10.38;;
16416;SDS011;8317;52.186;5.688;2023-01-04T06:32:08;10.88;;;9.77;;
16416;SDS011;8317;52.186;5.688;2023-01-04T06:34:35;13.25;;;9.82;;
16416;SDS011;8317;52.186;5.688;2023-01-04T06:37:02;11.95;;;10.30;;
16416;SDS011;8317;52.186;5.688;2023-01-04T06:39:29;12.00;;;9.65;;
16416;SDS011;8317;52.186;5.688;2023-01-04T06:41:58;13.60;;;10.50;;
16416;SDS011;8317;52.186;5.688;2023-01-04T06:44:25;11.45;;;10.25;;
16416;SDS011;8317;52.186;5.688;2023-01-04T06:46:52;10.57;;;9.35;;
16416;SDS011;8317;52.186;5.688;2023-01-04T06:49:18;12.02;;;10.82;;
16416;SDS011;8317;52.186;5.688;2023-01-04T06:51:45;13.63;;;10.48;;
16416;SDS011;8317;52.186;5.688;2023-01-04T06:54:12;10.82;;;9.52;;
16416;SDS011;8317;52.186;5.688;2023-01-04T06:56:39;13.95;;;10.45;;
16416;SDS011;8317;52.186;5.688;2023-01-04T06:59:08;12.82;;;11.30;;
16416;SDS011;8317;52.186;5.688;2023-01-04T07:01:35;10.73;;;9.63;;
16416;SDS011;8317;52.186;5.688;2023-01-04T07:04:02;14.90;;;10.88;;
16416;SDS011;8317;52.186;5.688;2023-01-04T07:06:29;15.40;;;13.38;;
16416;SDS011;8317;52.186;5.688;2023-01-04T07:08:56;15.80;;;13.63;;
16416;SDS011;8317;52.186;5.688;2023-01-04T07:11:23;12.48;;;10.80;;
16416;SDS011;8317;52.186;5.688;2023-01-04T07:13:50;14.90;;;10.65;;
16416;SDS011;8317;52.186;5.688;2023-01-04T07:16:19;12.68;;;11.05;;
16416;SDS011;8317;52.186;5.688;2023-01-04T07:18:45;16.58;;;10.90;;
16416;SDS011;8317;52.186;5.688;2023-01-04T07:21:12;15.98;;;9.32;;
16416;SDS011;8317;52.186;5.688;2023-01-04T07:23:39;13.73;;;11.55;;
16416;SDS011;8317;52.186;5.688;2023-01-04T07:26:06;13.98;;;10.20;;
16416;SDS011;8317;52.186;5.688;2023-01-04T07:28:33;11.80;;;10.40;;
16416;SDS011;8317;52.186;5.688;2023-01-04T07:31:19;17.00;;;9.10;;
16416;SDS011;8317;52.186;5.688;2023-01-04T07:33:47;13.38;;;9.25;;
16416;SDS011;8317;52.186;5.688;2023-01-04T07:36:15;12.32;;;10.13;;
16416;SDS011;8317;52.186;5.688;2023-01-04T07:38:42;14.13;;;9.27;;
16416;SDS011;8317;52.186;5.688;2023-01-04T07:41:09;12.70;;;8.77;;
16416;SDS011;8317;52.186;5.688;2023-01-04T07:43:36;13.10;;;9.77;;
16416;SDS011;8317;52.186;5.688;2023-01-04T07:46:03;13.23;;;8.65;;
16416;SDS011;8317;52.186;5.688;2023-01-04T07:48:32;11.70;;;8.35;;
16416;SDS011;8317;52.186;5.688;2023-01-04T07:50:58;8.13;;;7.07;;
16416;SDS011;8317;52.186;5.688;2023-01-04T07:53:25;16.67;;;8.07;;
16416;SDS011;8317;52.186;5.688;2023-01-04T07:55:56;11.00;;;7.60;;
16416;SDS011;8317;52.186;5.688;2023-01-04T07:58:23;10.82;;;7.82;;
16416;SDS011;8317;52.186;5.688;2023-01-04T08:00:50;12.85;;;7.78;;
16416;SDS011;8317;52.186;5.688;2023-01-04T08:03:17;15.50;;;7.53;;
16416;SDS011;8317;52.186;5.688;2023-01-04T08:05:46;11.63;;;7.97;;
16416;SDS011;8317;52.186;5.688;2023-01-04T08:08:12;13.70;;;7.68;;
16416;SDS011;8317;52.186;5.688;2023-01-04T08:10:39;8.73;;;6.93;;
16416;SDS011;8317;52.186;5.688;2023-01-04T08:13:06;9.63;;;7.40;;
16416;SDS011;8317;52.186;5.688;2023-01-04T08:15:33;11.60;;;6.95;;
16416;SDS011;8317;52.186;5.688;2023-01-04T08:18:00;9.75;;;7.53;;
16416;SDS011;8317;52.186;5.688;2023-01-04T08:20:27;10.45;;;7.78;;
16416;SDS011;8317;52.186;5.688;2023-01-04T08:22:55;8.43;;;7.07;;
16416;SDS011;8317;52.186;5.688;2023-01-04T08:25:22;9.90;;;7.45;;
16416;SDS011;8317;52.186;5.688;2023-01-04T08:27:49;7.40;;;6.70;;
16416;SDS011;8317;52.186;5.688;2023-01-04T08:30:16;9.38;;;6.88;;
16416;SDS011;8317;52.186;5.688;2023-01-04T08:32:43;8.73;;;6.20;;
16416;SDS011;8317;52.186;5.688;2023-01-04T08:35:10;11.02;;;6.43;;
16416;SDS011;8317;52.186;5.688;2023-01-04T08:37:37;9.45;;;6.53;;
16416;SDS011;8317;52.186;5.688;2023-01-04T08:40:06;10.95;;;5.55;;
16416;SDS011;8317;52.186;5.688;2023-01-04T08:42:35;8.93;;;5.93;;
16416;SDS011;8317;52.186;5.688;2023-01-04T08:45:03;9.63;;;6.18;;
16416;SDS011;8317;52.186;5.688;2023-01-04T08:47:31;8.02;;;5.72;;
16416;SDS011;8317;52.186;5.688;2023-01-04T08:49:58;9.18;;;5.32;;
16416;SDS011;8317;52.186;5.688;2023-01-04T08:52:25;5.82;;;5.00;;
16416;SDS011;8317;52.186;5.688;2023-01-04T08:54:52;4.95;;;4.50;;
16416;SDS011;8317;52.186;5.688;2023-01-04T08:57:20;7.88;;;4.93;;
16416;SDS011;8317;52.186;5.688;2023-01-04T08:59:47;6.10;;;5.50;;
16416;SDS011;8317;52.186;5.688;2023-01-04T09:02:18;11.90;;;8.23;;
16416;SDS011;8317;52.186;5.688;2023-01-04T09:04:47;18.00;;;9.18;;
16416;SDS011;8317;52.186;5.688;2023-01-04T09:07:14;17.23;;;8.52;;
16416;SDS011;8317;52.186;5.688;2023-01-04T09:09:41;7.15;;;6.47;;
16416;SDS011;8317;52.186;5.688;2023-01-04T09:12:08;6.10;;;5.50;;
16416;SDS011;8317;52.186;5.688;2023-01-04T09:14:37;5.43;;;3.88;;
16416;SDS011;8317;52.186;5.688;2023-01-04T09:17:04;6.47;;;4.55;;
16416;SDS011;8317;52.186;5.688;2023-01-04T09:19:31;4.60;;;4.25;;
16416;SDS011;8317;52.186;5.688;2023-01-04T09:21:58;4.85;;;4.18;;
16416;SDS011;8317;52.186;5.688;2023-01-04T09:24:25;7.68;;;4.68;;
16416;SDS011;8317;52.186;5.688;2023-01-04T09:26:52;4.60;;;4.15;;
16416;SDS011;8317;52.186;5.688;2023-01-04T09:29:19;4.43;;;4.00;;
16416;SDS011;8317;52.186;5.688;2023-01-04T09:31:47;4.40;;;3.65;;
16416;SDS011;8317;52.186;5.688;2023-01-04T09:34:14;5.38;;;4.00;;
16416;SDS011;8317;52.186;5.688;2023-01-04T09:36:41;5.32;;;4.32;;
16416;SDS011;8317;52.186;5.688;2023-01-04T09:39:08;4.60;;;4.20;;
16416;SDS011;8317;52.186;5.688;2023-01-04T09:41:37;5.15;;;4.50;;
16416;SDS011;8317;52.186;5.688;2023-01-04T09:44:10;4.55;;;4.05;;
16416;SDS011;8317;52.186;5.688;2023-01-04T09:46:43;4.72;;;4.25;;
16416;SDS011;8317;52.186;5.688;2023-01-04T09:49:15;4.65;;;3.72;;
16416;SDS011;8317;52.186;5.688;2023-01-04T09:51:47;4.65;;;4.18;;
16416;SDS011;8317;52.186;5.688;2023-01-04T09:54:20;6.35;;;4.65;;
16416;SDS011;8317;52.186;5.688;2023-01-04T09:56:52;6.68;;;5.00;;
16416;SDS011;8317;52.186;5.688;2023-01-04T09:59:24;8.00;;;5.00;;
16416;SDS011;8317;52.186;5.688;2023-01-04T10:01:55;7.53;;;3.83;;
16416;SDS011;8317;52.186;5.688;2023-01-04T10:04:27;8.00;;;4.88;;
16416;SDS011;8317;52.186;5.688;2023-01-04T10:07:03;6.55;;;4.70;;
16416;SDS011;8317;52.186;5.688;2023-01-04T10:09:30;5.72;;;4.40;;
16416;SDS011;8317;52.186;5.688;2023-01-04T10:12:00;5.13;;;4.63;;
16416;SDS011;8317;52.186;5.688;2023-01-04T10:14:43;5.13;;;4.55;;
16416;SDS011;8317;52.186;5.688;2023-01-04T10:17:22;7.07;;;4.90;;
16416;SDS011;8317;52.186;5.688;2023-01-04T10:20:03;6.90;;;4.72;;
16416;SDS011;8317;52.186;5.688;2023-01-04T10:22:58;5.47;;;4.43;;
16416;SDS011;8317;52.186;5.688;2023-01-04T10:25:32;6.93;;;4.95;;
16416;SDS011;8317;52.186;5.688;2023-01-04T10:28:15;5.78;;;5.10;;
16416;SDS011;8317;52.186;5.688;2023-01-04T10:30:51;9.00;;;5.32;;
16416;SDS011;8317;52.186;5.688;2023-01-04T10:33:27;6.80;;;4.47;;
16416;SDS011;8317;52.186;5.688;2023-01-04T10:36:01;6.45;;;5.22;;
16416;SDS011;8317;52.186;5.688;2023-01-04T10:38:29;4.90;;;4.40;;
16416;SDS011;8317;52.186;5.688;2023-01-04T10:41:00;5.00;;;4.50;;
16416;SDS011;8317;52.186;5.688;2023-01-04T10:43:35;8.18;;;5.10;;
16416;SDS011;8317;52.186;5.688;2023-01-04T10:46:08;7.85;;;4.40;;
16416;SDS011;8317;52.186;5.688;2023-01-04T10:48:42;4.60;;;4.20;;
16416;SDS011;8317;52.186;5.688;2023-01-04T10:51:18;6.43;;;4.38;;
16416;SDS011;8317;52.186;5.688;2023-01-04T10:53:53;5.68;;;4.43;;
16416;SDS011;8317;52.186;5.688;2023-01-04T10:56:24;4.68;;;4.28;;
16416;SDS011;8317;52.186;5.688;2023-01-04T10:58:57;4.32;;;3.92;;
16416;SDS011;8317;52.186;5.688;2023-01-04T11:01:31;5.05;;;4.60;;
16416;SDS011;8317;52.186;5.688;2023-01-04T11:04:04;4.28;;;3.83;;
16416;SDS011;8317;52.186;5.688;2023-01-04T11:06:39;4.45;;;3.72;;
16416;SDS011;8317;52.186;5.688;2023-01-04T11:09:12;3.65;;;3.35;;
16416;SDS011;8317;52.186;5.688;2023-01-04T11:11:44;5.13;;;4.25;;
16416;SDS011;8317;52.186;5.688;2023-01-04T11:14:12;5.50;;;3.88;;
16416;SDS011;8317;52.186;5.688;2023-01-04T11:16:40;6.05;;;3.60;;
16416;SDS011;8317;52.186;5.688;2023-01-04T11:19:10;8.30;;;6.50;;
16416;SDS011;8317;52.186;5.688;2023-01-04T11:21:40;5.30;;;3.67;;
16416;SDS011;8317;52.186;5.688;2023-01-04T11:24:11;10.15;;;7.18;;
16416;SDS011;8317;52.186;5.688;2023-01-04T11:26:39;5.55;;;4.25;;
16416;SDS011;8317;52.186;5.688;2023-01-04T11:29:12;4.32;;;3.50;;
16416;SDS011;8317;52.186;5.688;2023-01-04T11:31:52;11.95;;;8.50;;
16416;SDS011;8317;52.186;5.688;2023-01-04T11:37:23;5.15;;;3.90;;
16416;SDS011;8317;52.186;5.688;2023-01-04T11:40:11;3.92;;;3.10;;
16416;SDS011;8317;52.186;5.688;2023-01-04T11:42:47;4.28;;;3.88;;
16416;SDS011;8317;52.186;5.688;2023-01-04T11:45:19;3.50;;;3.20;;
16416;SDS011;8317;52.186;5.688;2023-01-04T11:47:49;3.35;;;2.78;;
16416;SDS011;8317;52.186;5.688;2023-01-04T11:50:37;6.15;;;3.30;;
16416;SDS011;8317;52.186;5.688;2023-01-04T11:56:07;4.85;;;3.55;;
16416;SDS011;8317;52.186;5.688;2023-01-04T11:58:38;8.25;;;4.15;;
16416;SDS011;8317;52.186;5.688;2023-01-04T12:01:05;6.43;;;4.03;;
16416;SDS011;8317;52.186;5.688;2023-01-04T12:03:43;5.15;;;4.20;;
16416;SDS011;8317;52.186;5.688;2023-01-04T12:06:11;9.68;;;4.43;;
16416;SDS011;8317;52.186;5.688;2023-01-04T12:08:45;6.78;;;3.53;;
16416;SDS011;8317;52.186;5.688;2023-01-04T12:11:16;8.23;;;3.55;;
16416;SDS011;8317;52.186;5.688;2023-01-04T12:13:49;13.07;;;3.97;;
16416;SDS011;8317;52.186;5.688;2023-01-04T12:16:19;13.15;;;4.32;;
16416;SDS011;8317;52.186;5.688;2023-01-04T12:18:53;13.88;;;4.55;;
16416;SDS011;8317;52.186;5.688;2023-01-04T12:21:21;10.18;;;4.38;;
16416;SDS011;8317;52.186;5.688;2023-01-04T12:23:50;10.55;;;4.45;;
16416;SDS011;8317;52.186;5.688;2023-01-04T12:26:19;8.32;;;3.88;;
16416;SDS011;8317;52.186;5.688;2023-01-04T12:28:47;7.75;;;4.55;;
16416;SDS011;8317;52.186;5.688;2023-01-04T12:31:27;11.00;;;5.05;;
16416;SDS011;8317;52.186;5.688;2023-01-04T12:33:56;11.15;;;4.35;;
16416;SDS011;8317;52.186;5.688;2023-01-04T12:39:29;12.30;;;4.93;;
16416;SDS011;8317;52.186;5.688;2023-01-04T12:42:08;11.98;;;4.30;;
16416;SDS011;8317;52.186;5.688;2023-01-04T12:47:40;5.05;;;3.50;;
16416;SDS011;8317;52.186;5.688;2023-01-04T12:50:25;14.32;;;4.18;;
16416;SDS011;8317;52.186;5.688;2023-01-04T12:52:55;10.75;;;3.58;;
16416;SDS011;8317;52.186;5.688;2023-01-04T12:58:39;8.40;;;2.75;;
16416;SDS011;8317;52.186;5.688;2023-01-04T13:01:30;10.07;;;3.22;;
16416;SDS011;8317;52.186;5.688;2023-01-04T13:03:58;13.82;;;3.60;;
16416;SDS011;8317;52.186;5.688;2023-01-04T13:06:27;12.23;;;3.83;;
16416;SDS011;8317;52.186;5.688;2023-01-04T13:08:57;10.95;;;3.78;;
16416;SDS011;8317;52.186;5.688;2023-01-04T13:11:32;12.77;;;3.45;;
16416;SDS011;8317;52.186;5.688;2023-01-04T13:14:17;14.68;;;3.22;;
16416;SDS011;8317;52.186;5.688;2023-01-04T13:16:56;12.40;;;3.78;;
16416;SDS011;8317;52.186;5.688;2023-01-04T13:19:39;9.55;;;3.30;;
16416;SDS011;8317;52.186;5.688;2023-01-04T13:22:14;11.15;;;2.95;;
16416;SDS011;8317;52.186;5.688;2023-01-04T13:24:47;13.52;;;3.28;;
16416;SDS011;8317;52.186;5.688;2023-01-04T13:27:17;10.63;;;2.85;;
16416;SDS011;8317;52.186;5.688;2023-01-04T13:29:46;10.95;;;2.67;;
16416;SDS011;8317;52.186;5.688;2023-01-04T13:32:15;10.65;;;2.55;;
16416;SDS011;8317;52.186;5.688;2023-01-04T13:34:49;11.77;;;3.25;;
16416;SDS011;8317;52.186;5.688;2023-01-04T13:37:24;9.57;;;2.30;;
16416;SDS011;8317;52.186;5.688;2023-01-04T13:39:59;8.65;;;2.72;;
16416;SDS011;8317;52.186;5.688;2023-01-04T13:42:43;14.18;;;2.70;;
16416;SDS011;8317;52.186;5.688;2023-01-04T13:45:20;10.50;;;2.55;;
16416;SDS011;8317;52.186;5.688;2023-01-04T13:48:02;8.77;;;2.65;;
16416;SDS011;8317;52.186;5.688;2023-01-04T13:50:35;9.98;;;2.80;;
16416;SDS011;8317;52.186;5.688;2023-01-04T13:53:15;11.07;;;2.90;;
16416;SDS011;8317;52.186;5.688;2023-01-04T13:55:45;14.40;;;2.95;;
16416;SDS011;8317;52.186;5.688;2023-01-04T13:58:17;10.40;;;2.70;;
16416;SDS011;8317;52.186;5.688;2023-01-04T14:00:47;9.73;;;2.63;;
16416;SDS011;8317;52.186;5.688;2023-01-04T14:03:24;10.18;;;2.72;;
16416;SDS011;8317;52.186;5.688;2023-01-04T14:05:55;8.93;;;2.47;;
16416;SDS011;8317;52.186;5.688;2023-01-04T14:08:39;9.43;;;1.98;;
16416;SDS011;8317;52.186;5.688;2023-01-04T14:11:14;11.20;;;2.30;;
16416;SDS011;8317;52.186;5.688;2023-01-04T14:14:15;7.70;;;2.42;;
16416;SDS011;8317;52.186;5.688;2023-01-04T14:16:49;15.82;;;2.80;;
16416;SDS011;8317;52.186;5.688;2023-01-04T14:19:27;13.23;;;2.17;;
16416;SDS011;8317;52.186;5.688;2023-01-04T14:28:16;10.82;;;2.35;;
16416;SDS011;8317;52.186;5.688;2023-01-04T14:34:06;16.20;;;2.50;;
16416;SDS011;8317;52.186;5.688;2023-01-04T14:36:39;14.23;;;2.75;;
16416;SDS011;8317;52.186;5.688;2023-01-04T14:39:11;9.85;;;2.72;;
16416;SDS011;8317;52.186;5.688;2023-01-04T14:41:52;15.23;;;2.67;;
16416;SDS011;8317;52.186;5.688;2023-01-04T14:44:21;14.45;;;2.95;;
16416;SDS011;8317;52.186;5.688;2023-01-04T14:46:52;14.95;;;3.00;;
16416;SDS011;8317;52.186;5.688;2023-01-04T14:49:20;11.60;;;2.80;;
16416;SDS011;8317;52.186;5.688;2023-01-04T14:51:48;13.98;;;2.78;;
16416;SDS011;8317;52.186;5.688;2023-01-04T14:54:18;10.45;;;2.42;;
16416;SDS011;8317;52.186;5.688;2023-01-04T14:56:45;16.08;;;2.80;;
16416;SDS011;8317;52.186;5.688;2023-01-04T14:59:12;8.70;;;2.55;;
16416;SDS011;8317;52.186;5.688;2023-01-04T15:01:39;17.90;;;2.78;;
16416;SDS011;8317;52.186;5.688;2023-01-04T15:04:07;11.65;;;2.53;;
16416;SDS011;8317;52.186;5.688;2023-01-04T15:06:34;13.00;;;2.70;;
16416;SDS011;8317;52.186;5.688;2023-01-04T15:09:01;13.90;;;2.72;;
16416;SDS011;8317;52.186;5.688;2023-01-04T15:11:28;16.17;;;2.97;;
16416;SDS011;8317;52.186;5.688;2023-01-04T15:13:56;10.15;;;2.50;;
16416;SDS011;8317;52.186;5.688;2023-01-04T15:16:23;11.45;;;2.53;;
16416;SDS011;8317;52.186;5.688;2023-01-04T15:18:49;15.68;;;3.20;;
16416;SDS011;8317;52.186;5.688;2023-01-04T15:21:18;13.38;;;2.70;;
16416;SDS011;8317;52.186;5.688;2023-01-04T15:23:45;15.25;;;2.70;;
16416;SDS011;8317;52.186;5.688;2023-01-04T15:26:12;13.25;;;4.38;;
16416;SDS011;8317;52.186;5.688;2023-01-04T15:28:39;13.15;;;2.85;;
16416;SDS011;8317;52.186;5.688;2023-01-04T15:31:07;19.42;;;3.20;;
16416;SDS011;8317;52.186;5.688;2023-01-04T15:33:35;9.07;;;2.38;;
16416;SDS011;8317;52.186;5.688;2023-01-04T15:36:03;17.73;;;2.85;;
16416;SDS011;8317;52.186;5.688;2023-01-04T15:38:33;15.40;;;2.70;;
16416;SDS011;8317;52.186;5.688;2023-01-04T15:41:01;17.48;;;3.42;;
16416;SDS011;8317;52.186;5.688;2023-01-04T15:43:31;17.48;;;2.80;;
16416;SDS011;8317;52.186;5.688;2023-01-04T15:46:01;14.77;;;2.83;;
16416;SDS011;8317;52.186;5.688;2023-01-04T15:48:31;21.05;;;3.60;;
16416;SDS011;8317;52.186;5.688;2023-01-04T15:51:00;16.65;;;3.10;;